Time;durP1;ratioP1;P1;durP2;ratioP2;P2;SDS_P1;SDS_P2;PMS_P1;PMS_P2;Temp;Humidity;BMP_temperature;BMP_pressure;BME280_temperature;BME280_humidity;BME280_pressure;Samples;Min_cycle;Max_cycle;Signal;HPM_P1;HPM_P2
2023/10/19 00:02:55;;;;;;;23.03;19.57;;;;;;;4.24;100.00;96719.84;6251707;28;20227;-56
2023/10/19 00:05:58;;;;;;;22.30;18.80;;;;;;;4.27;100.00;96719.38;6251351;28;20231;-56
2023/10/19 00:09:00;;;;;;;23.90;20.03;;;;;;;4.42;100.00;96734.00;6254370;28;20254;-58
2023/10/19 00:12:08;;;;;;;25.13;19.50;;;;;;;4.44;100.00;96743.28;6251878;28;20241;-58
2023/10/19 00:15:12;;;;;;;23.77;20.17;;;;;;;4.45;100.00;96733.56;6247539;28;20239;-59
2023/10/19 00:24:24;;;;;;;25.07;20.33;;;;;;;4.30;100.00;96697.84;6253387;28;20360;-60
2023/10/19 00:27:27;;;;;;;27.33;21.50;;;;;;;4.47;100.00;96718.28;6251508;28;21184;-53
2023/10/19 00:30:32;;;;;;;25.40;20.73;;;;;;;4.35;100.00;96700.63;6253086;28;20698;-60
2023/10/19 00:33:38;;;;;;;25.40;21.13;;;;;;;4.57;100.00;96713.25;6252350;28;20541;-60
2023/10/19 00:36:42;;;;;;;28.10;21.20;;;;;;;4.63;100.00;96709.72;6251800;28;20705;-60
2023/10/19 00:39:54;;;;;;;25.53;21.13;;;;;;;4.68;100.00;96715.13;6253148;28;20243;-57
2023/10/19 00:42:56;;;;;;;24.20;20.50;;;;;;;4.68;100.00;96688.75;6252024;28;20274;-57
2023/10/19 00:46:01;;;;;;;24.53;20.87;;;;;;;4.80;100.00;96689.56;6252585;28;20242;-57
2023/10/19 00:49:09;;;;;;;22.47;19.70;;;;;;;4.69;100.00;96653.41;6235107;28;20605;-59
2023/10/19 00:52:11;;;;;;;30.17;23.30;;;;;;;4.95;100.00;96667.97;6249526;28;20253;-57
2023/10/19 00:55:15;;;;;;;27.23;23.03;;;;;;;4.88;100.00;96664.66;6255891;28;20234;-56
2023/10/19 00:58:22;;;;;;;26.83;22.27;;;;;;;5.04;100.00;96671.06;6238127;28;20262;-58
2023/10/19 01:01:29;;;;;;;22.70;20.20;;;;;;;5.07;100.00;96668.75;6255333;28;20236;-60
2023/10/19 01:04:34;;;;;;;24.67;21.57;;;;;;;5.10;100.00;96662.22;6255720;28;20316;-55
2023/10/19 01:07:44;;;;;;;26.90;21.83;;;;;;;5.13;100.00;96657.28;6253821;28;20256;-60
2023/10/19 01:10:51;;;;;;;26.37;21.23;;;;;;;5.02;100.00;96641.44;6256449;28;20269;-57
2023/10/19 01:13:55;;;;;;;24.77;20.43;;;;;;;5.20;100.00;96649.22;6257952;28;20224;-58
2023/10/19 01:16:58;;;;;;;26.90;21.70;;;;;;;5.24;100.00;96642.47;6252776;28;20286;-58
2023/10/19 01:20:07;;;;;;;28.97;22.03;;;;;;;5.30;100.00;96632.81;6256007;28;20353;-59
2023/10/19 01:26:18;;;;;;;26.00;19.77;;;;;;;5.37;100.00;96641.41;6256919;28;20224;-56
2023/10/19 01:29:26;;;;;;;22.93;19.33;;;;;;;5.40;100.00;96631.16;6256343;28;20223;-56
2023/10/19 01:32:29;;;;;;;20.77;18.53;;;;;;;5.44;100.00;96634.94;6234993;28;20276;-59
2023/10/19 01:36:10;;;;;;;25.10;20.17;;;;;;;5.48;100.00;96631.84;6254051;28;20233;-55
2023/10/19 01:38:58;;;;;;;23.30;19.20;;;;;;;5.53;100.00;96626.66;6238042;28;20236;-57
2023/10/19 01:42:01;;;;;;;21.70;18.33;;;;;;;5.55;100.00;96619.28;6257607;28;20240;-60
2023/10/19 01:45:05;;;;;;;22.97;19.27;;;;;;;5.57;100.00;96617.22;6280220;28;20319;-56
2023/10/19 01:48:08;;;;;;;23.10;19.63;;;;;;;5.59;100.00;96607.22;6259930;28;20833;-58
2023/10/19 01:51:12;;;;;;;27.10;20.73;;;;;;;5.60;100.00;96600.88;6277565;28;20221;-60
2023/10/19 01:54:16;;;;;;;24.27;19.60;;;;;;;5.59;100.00;96605.38;6263381;28;20221;-59
2023/10/19 01:57:18;;;;;;;21.60;19.17;;;;;;;5.60;100.00;96595.59;6274552;28;20304;-53
2023/10/19 02:00:22;;;;;;;28.83;20.53;;;;;;;5.61;100.00;96600.63;6258059;28;20211;-58
2023/10/19 02:03:28;;;;;;;21.80;18.33;;;;;;;5.62;100.00;96604.09;6262511;28;20232;-51
2023/10/19 02:06:40;;;;;;;22.13;18.57;;;;;;;5.61;100.00;96603.28;6261177;28;20236;-59
2023/10/19 02:09:43;;;;;;;21.50;18.30;;;;;;;5.61;100.00;96599.84;6280828;28;20232;-57
2023/10/19 02:12:46;;;;;;;21.77;19.17;;;;;;;5.59;100.00;96599.28;6275517;28;20823;-58
2023/10/19 02:15:51;;;;;;;22.60;19.57;;;;;;;5.54;100.00;96596.56;6262068;28;20277;-57
2023/10/19 02:18:53;;;;;;;24.93;20.20;;;;;;;5.49;100.00;96591.19;6276875;28;20237;-59
2023/10/19 02:21:59;;;;;;;26.17;21.53;;;;;;;5.44;100.00;96582.13;6279566;28;20248;-56
2023/10/19 02:25:01;;;;;;;24.80;20.97;;;;;;;5.39;100.00;96578.59;6279801;28;20228;-58
2023/10/19 02:28:06;;;;;;;26.47;21.97;;;;;;;5.38;100.00;96585.72;6261501;28;20289;-58
2023/10/19 02:31:16;;;;;;;25.47;21.33;;;;;;;5.34;100.00;96570.56;6281508;28;20236;-55
2023/10/19 02:34:18;;;;;;;26.50;22.13;;;;;;;5.30;100.00;96564.94;6277246;28;20236;-53
2023/10/19 02:37:21;;;;;;;26.53;21.40;;;;;;;5.22;100.00;96554.78;6278988;28;20326;-57
2023/10/19 02:40:24;;;;;;;26.03;22.23;;;;;;;5.14;100.00;96560.41;6277489;28;20228;-55
2023/10/19 02:43:27;;;;;;;28.63;23.47;;;;;;;5.06;100.00;96558.13;6261834;28;20236;-57
2023/10/19 02:46:30;;;;;;;25.57;22.57;;;;;;;5.05;100.00;96551.25;6276931;28;20713;-59
2023/10/19 02:49:38;;;;;;;26.33;23.33;;;;;;;5.05;100.00;96545.97;6278057;28;20242;-56
2023/10/19 02:52:41;;;;;;;26.17;22.57;;;;;;;5.00;100.00;96551.16;6263732;28;20231;-57
2023/10/19 02:55:43;;;;;;;26.63;22.10;;;;;;;4.95;100.00;96548.41;6278681;28;20683;-57
2023/10/19 02:58:49;;;;;;;24.60;21.23;;;;;;;4.77;100.00;96512.44;6277767;28;20228;-59
2023/10/19 03:02:18;;;;;;;28.03;21.97;;;;;;;4.73;100.00;96511.28;6276690;28;20320;-57
2023/10/19 03:05:20;;;;;;;25.00;21.63;;;;;;;4.86;100.00;96535.59;6277329;28;20222;-57
2023/10/19 03:08:26;;;;;;;24.70;21.30;;;;;;;4.78;100.00;96532.50;6260939;28;20228;-52
2023/10/19 03:11:28;;;;;;;28.30;23.43;;;;;;;4.70;100.00;96520.50;6283232;28;20230;-59
2023/10/19 03:14:33;;;;;;;27.23;23.70;;;;;;;4.68;100.00;96521.75;6278655;28;20253;-55
2023/10/19 03:17:36;;;;;;;28.03;22.00;;;;;;;4.54;100.00;96500.91;6277831;28;20239;-56
2023/10/19 03:20:41;;;;;;;29.57;23.13;;;;;;;4.55;100.00;96499.88;6278503;28;20235;-58
2023/10/19 03:23:43;;;;;;;27.67;22.90;;;;;;;4.59;100.00;96516.84;6276146;28;20225;-57
2023/10/19 03:26:48;;;;;;;28.43;23.83;;;;;;;4.55;100.00;96510.44;6260388;28;20272;-57
2023/10/19 03:29:55;;;;;;;30.03;24.90;;;;;;;4.56;100.00;96509.38;6277459;28;20223;-57
2023/10/19 03:32:59;;;;;;;31.77;24.90;;;;;;;4.58;100.00;96507.34;6257227;28;20809;-57
2023/10/19 03:36:05;;;;;;;33.03;25.50;;;;;;;4.56;100.00;96495.41;6258888;28;20255;-59
2023/10/19 03:39:12;;;;;;;31.40;26.00;;;;;;;4.59;100.00;96494.94;6264924;28;20218;-57
2023/10/19 03:42:20;;;;;;;31.93;25.23;;;;;;;4.64;100.00;96487.13;6259361;28;20312;-57
2023/10/19 03:45:24;;;;;;;33.40;26.07;;;;;;;4.69;100.00;96502.25;6277866;28;20230;-55
2023/10/19 03:48:26;;;;;;;31.87;25.27;;;;;;;4.63;100.00;96486.34;6277082;28;20219;-58
2023/10/19 03:51:39;;;;;;;31.23;25.40;;;;;;;4.72;100.00;96499.94;6272422;28;20222;-58
2023/10/19 03:54:42;;;;;;;29.77;25.47;;;;;;;4.52;100.00;96462.59;6280385;28;20214;-58
2023/10/19 03:57:54;;;;;;;29.63;25.97;;;;;;;4.73;100.00;96485.75;6275870;28;20233;-58
2023/10/19 04:01:01;;;;;;;26.77;23.87;;;;;;;4.75;100.00;96482.84;6277276;28;20281;-56
2023/10/19 04:04:04;;;;;;;33.87;25.30;;;;;;;4.79;100.00;96470.81;6243610;28;20234;-57
2023/10/19 04:07:50;;;;;;;31.17;26.50;;;;;;;4.81;100.00;96466.88;6258350;28;20600;-56
2023/10/19 04:13:39;;;;;;;31.57;25.63;;;;;;;4.83;100.00;96470.09;6277973;28;20672;-54
2023/10/19 04:16:43;;;;;;;29.23;24.33;;;;;;;4.87;100.00;96467.78;6254593;28;20710;-42
2023/10/19 04:19:45;;;;;;;30.10;23.50;;;;;;;4.92;100.00;96470.50;6276620;28;20283;-43
2023/10/19 04:22:50;;;;;;;27.80;23.77;;;;;;;4.99;100.00;96457.19;6277779;28;20637;-44
2023/10/19 04:25:56;;;;;;;28.90;23.83;;;;;;;5.04;100.00;96449.38;6277588;28;20239;-43
2023/10/19 04:28:59;;;;;;;25.07;21.93;;;;;;;5.07;100.00;96456.78;6275166;28;20225;-45
2023/10/19 04:32:05;;;;;;;25.97;21.13;;;;;;;5.10;100.00;96441.28;6273441;28;20214;-43
2023/10/19 04:35:11;;;;;;;25.40;20.77;;;;;;;5.15;100.00;96437.94;6276951;28;20227;-40
2023/10/19 04:38:13;;;;;;;30.40;23.53;;;;;;;5.20;100.00;96427.47;6277246;28;20240;-41
2023/10/19 04:41:16;;;;;;;29.13;24.53;;;;;;;5.22;100.00;96420.13;6263383;28;20239;-42
2023/10/19 04:44:18;;;;;;;23.43;20.93;;;;;;;5.26;100.00;96415.94;6277882;28;20232;-41
2023/10/19 04:47:22;;;;;;;26.57;23.20;;;;;;;5.30;100.00;96419.72;6280095;28;20855;-42
2023/10/19 04:50:27;;;;;;;26.10;22.07;;;;;;;5.37;100.00;96432.78;6276948;28;20586;-41
2023/10/19 04:53:32;;;;;;;27.27;23.63;;;;;;;5.42;100.00;96420.47;6273060;28;20227;-41
2023/10/19 04:56:35;;;;;;;24.53;21.90;;;;;;;5.48;100.00;96423.19;6276433;28;20872;-41
2023/10/19 04:59:38;;;;;;;23.43;20.93;;;;;;;5.44;100.00;96410.44;6275106;28;20231;-42
2023/10/19 05:02:40;;;;;;;26.20;23.10;;;;;;;5.58;100.00;96418.06;6275861;28;20235;-42
2023/10/19 05:05:43;;;;;;;30.43;25.60;;;;;;;5.59;100.00;96401.97;6258250;28;20732;-42
2023/10/19 05:08:46;;;;;;;31.30;25.87;;;;;;;5.67;100.00;96424.53;6276282;28;20220;-41
2023/10/19 05:11:48;;;;;;;31.93;27.37;;;;;;;5.72;100.00;96418.53;6276120;28;20240;-41
2023/10/19 05:14:52;;;;;;;25.47;21.33;;;;;;;5.75;100.00;96421.47;6275942;28;20232;-42
2023/10/19 05:17:55;;;;;;;23.20;20.70;;;;;;;5.80;100.00;96415.47;6274398;28;20240;-43
2023/10/19 05:20:58;;;;;;;27.67;23.03;;;;;;;5.79;100.00;96408.59;6276840;28;20252;-42
2023/10/19 05:24:01;;;;;;;25.13;22.10;;;;;;;5.89;100.00;96411.38;6275392;28;20340;-44
2023/10/19 05:27:04;;;;;;;27.47;22.50;;;;;;;5.94;100.00;96406.19;6251095;28;20224;-45
2023/10/19 05:30:10;;;;;;;30.73;26.37;;;;;;;6.00;100.00;96415.78;6252750;28;20759;-42
2023/10/19 05:33:12;;;;;;;26.60;22.43;;;;;;;6.05;100.00;96418.50;6251988;28;20222;-41
2023/10/19 05:36:14;;;;;;;23.53;20.10;;;;;;;6.11;100.00;96416.75;6252481;28;20222;-42
2023/10/19 05:39:17;;;;;;;27.03;23.17;;;;;;;6.16;100.00;96407.03;6252206;28;20206;-42
2023/10/19 05:42:20;;;;;;;24.27;21.67;;;;;;;6.13;100.00;96393.50;6254610;28;20351;-42
2023/10/19 05:45:22;;;;;;;26.57;23.77;;;;;;;6.25;100.00;96396.81;6255975;28;20238;-41
2023/10/19 05:48:25;;;;;;;28.83;24.90;;;;;;;6.29;100.00;96403.22;6255871;28;20311;-42
2023/10/19 05:51:27;;;;;;;28.00;24.20;;;;;;;6.32;100.00;96397.44;6255821;28;20707;-42
2023/10/19 05:54:29;;;;;;;25.27;22.37;;;;;;;6.36;100.00;96393.25;6237936;28;20234;-41
2023/10/19 05:57:33;;;;;;;28.47;23.63;;;;;;;6.43;100.00;96390.41;6254437;28;20228;-42
2023/10/19 06:00:35;;;;;;;25.37;21.63;;;;;;;6.47;100.00;96394.19;6254819;28;20223;-41
2023/10/19 06:03:38;;;;;;;23.57;20.77;;;;;;;6.52;100.00;96394.22;6255415;28;20242;-41
2023/10/19 06:06:41;;;;;;;23.37;20.90;;;;;;;6.43;100.00;96367.41;6256383;28;20702;-43
2023/10/19 06:09:43;;;;;;;23.30;20.80;;;;;;;6.62;100.00;96388.25;6254655;28;20245;-40
2023/10/19 06:12:50;;;;;;;30.20;26.10;;;;;;;6.67;100.00;96388.31;6254793;28;20594;-43
2023/10/19 06:15:52;;;;;;;24.23;20.60;;;;;;;6.76;100.00;96396.63;6254947;28;20335;-42
2023/10/19 06:18:55;;;;;;;28.60;24.83;;;;;;;6.85;100.00;96403.06;6263022;28;20241;-41
2023/10/19 06:21:57;;;;;;;28.77;24.10;;;;;;;6.90;100.00;96398.63;6279119;28;20735;-41
2023/10/19 06:24:59;;;;;;;26.37;21.87;;;;;;;6.96;100.00;96408.19;6275811;28;20240;-42
2023/10/19 06:28:01;;;;;;;25.30;22.60;;;;;;;7.06;100.00;96409.34;6279486;28;20238;-41
2023/10/19 06:31:04;;;;;;;27.37;24.53;;;;;;;7.10;100.00;96390.06;6278003;28;20233;-41
2023/10/19 06:34:06;;;;;;;27.30;23.27;;;;;;;7.17;100.00;96392.50;6278758;28;20242;-42
2023/10/19 06:37:10;;;;;;;26.97;24.07;;;;;;;7.22;100.00;96396.00;6279164;28;20238;-41
2023/10/19 06:40:16;;;;;;;24.93;21.50;;;;;;;7.27;100.00;96389.94;6261255;28;20226;-41
2023/10/19 06:43:21;;;;;;;22.17;19.33;;;;;;;7.32;100.00;96391.84;6278556;28;20696;-41
2023/10/19 06:46:23;;;;;;;31.67;25.97;;;;;;;7.31;100.00;96382.28;6280601;28;20325;-42
2023/10/19 06:49:25;;;;;;;30.57;25.83;;;;;;;7.39;100.00;96390.59;6280078;28;20659;-43
2023/10/19 06:52:28;;;;;;;29.20;24.87;;;;;;;7.56;100.00;96389.63;6278111;28;20230;-41
2023/10/19 06:55:30;;;;;;;29.80;25.60;;;;;;;7.64;100.00;96402.44;6258067;28;20237;-41
2023/10/19 06:58:32;;;;;;;35.43;29.73;;;;;;;7.75;100.00;96399.59;6277805;28;20268;-42
2023/10/19 07:01:36;;;;;;;40.20;29.87;;;;;;;7.82;100.00;96388.75;6278021;28;20233;-42
2023/10/19 07:04:38;;;;;;;30.37;25.47;;;;;;;7.86;100.00;96373.94;6278024;28;20245;-43
2023/10/19 07:07:41;;;;;;;32.97;27.03;;;;;;;7.92;100.00;96372.91;6275874;28;20713;-41
2023/10/19 07:10:43;;;;;;;36.70;27.93;;;;;;;7.98;100.00;96369.25;6278196;28;20225;-43
2023/10/19 07:13:46;;;;;;;26.60;23.00;;;;;;;8.02;100.00;96383.56;6278618;28;20242;-41
2023/10/19 07:16:51;;;;;;;33.93;27.43;;;;;;;8.09;100.00;96391.31;6276469;28;20271;-43
2023/10/19 07:19:53;;;;;;;33.80;26.73;;;;;;;8.12;100.00;96382.03;6277789;28;20234;-42
2023/10/19 07:23:18;;;;;;;34.73;28.23;;;;;;;8.31;100.00;96379.72;6275574;28;20287;-42
2023/10/19 07:26:31;;;;;;;31.67;26.73;;;;;;;8.23;100.00;96389.78;6280502;28;20246;-42
2023/10/19 07:29:36;;;;;;;32.67;27.40;;;;;;;8.20;100.00;96392.16;6274719;28;20233;-42
2023/10/19 07:32:38;;;;;;;31.33;24.90;;;;;;;8.23;100.00;96389.00;6278227;28;20233;-42
2023/10/19 07:35:43;;;;;;;32.03;27.00;;;;;;;8.24;100.00;96385.28;6278025;28;20288;-42
2023/10/19 07:38:47;;;;;;;30.80;25.67;;;;;;;8.23;100.00;96389.78;6274897;28;20662;-42
2023/10/19 07:41:50;;;;;;;30.53;26.27;;;;;;;8.27;100.00;96393.53;6278071;28;20222;-44
2023/10/19 07:44:52;;;;;;;36.33;27.97;;;;;;;8.29;100.00;96377.34;6276965;28;20290;-42
2023/10/19 07:47:54;;;;;;;27.20;22.93;;;;;;;8.28;100.00;96359.84;6277567;28;20652;-44
2023/10/19 07:50:56;;;;;;;33.17;27.10;;;;;;;8.28;100.00;96362.50;6277436;28;20226;-42
2023/10/19 07:53:58;;;;;;;30.37;25.97;;;;;;;8.29;100.00;96356.13;6279534;28;20321;-43
2023/10/19 07:57:08;;;;;;;28.40;24.23;;;;;;;8.32;100.00;96360.09;6276123;28;20226;-44
2023/10/19 08:00:13;;;;;;;26.80;23.57;;;;;;;8.43;100.00;96365.22;6275057;28;20247;-42
2023/10/19 08:03:16;;;;;;;29.07;25.13;;;;;;;8.50;100.00;96373.72;6275892;28;20258;-42
2023/10/19 08:06:19;;;;;;;29.80;24.27;;;;;;;8.57;100.00;96365.53;6276055;28;20211;-44
2023/10/19 08:09:31;;;;;;;32.07;26.67;;;;;;;8.57;100.00;96364.72;6276609;28;20238;-42
2023/10/19 08:12:34;;;;;;;30.27;26.00;;;;;;;8.52;100.00;96379.59;6275727;28;20349;-41
2023/10/19 08:15:36;;;;;;;27.33;24.23;;;;;;;8.57;100.00;96372.69;6276768;28;20775;-41
2023/10/19 08:18:39;;;;;;;29.47;25.07;;;;;;;8.62;100.00;96367.38;6275245;28;20234;-42
2023/10/19 08:21:41;;;;;;;26.87;23.97;;;;;;;8.69;100.00;96370.59;6274616;28;20315;-40
2023/10/19 08:24:45;;;;;;;27.93;23.43;;;;;;;8.77;100.00;96370.09;6277005;28;20739;-42
2023/10/19 08:27:56;;;;;;;30.80;24.50;;;;;;;8.84;100.00;96362.69;6281219;28;20218;-41
2023/10/19 08:31:02;;;;;;;31.23;23.93;;;;;;;8.84;100.00;96367.19;6275266;28;20223;-42
2023/10/19 08:34:04;;;;;;;30.13;23.90;;;;;;;8.77;100.00;96357.63;6275798;28;20666;-40
2023/10/19 08:37:06;;;;;;;23.60;21.03;;;;;;;8.74;100.00;96347.53;6276778;28;20222;-41
2023/10/19 08:40:14;;;;;;;23.27;20.77;;;;;;;8.98;100.00;96368.28;6250813;28;20635;-41
2023/10/19 08:43:18;;;;;;;28.77;22.77;;;;;;;9.04;100.00;96356.59;6258882;28;21015;-44
2023/10/19 08:46:21;;;;;;;31.77;24.50;;;;;;;9.10;100.00;96355.53;6259654;28;20733;-41
2023/10/19 08:49:23;;;;;;;27.17;23.77;;;;;;;9.08;100.00;96347.03;6275252;28;20233;-40
2023/10/19 08:52:27;;;;;;;29.30;23.20;;;;;;;9.12;100.00;96357.94;6276840;28;20313;-43
2023/10/19 08:55:30;;;;;;;26.90;21.90;;;;;;;9.16;100.00;96365.13;6275351;28;20232;-41
2023/10/19 08:58:36;;;;;;;29.67;23.00;;;;;;;9.22;100.00;96357.94;6280424;28;20862;-42
2023/10/19 09:01:38;;;;;;;26.87;22.80;;;;;;;9.20;100.00;96331.63;6275751;28;20586;-40
2023/10/19 09:04:43;;;;;;;27.40;21.93;;;;;;;9.33;100.00;96345.47;6280507;28;20234;-41
2023/10/19 09:07:55;;;;;;;22.03;19.10;;;;;;;9.37;100.00;96349.19;6276228;28;20235;-44
2023/10/19 09:10:57;;;;;;;25.37;22.47;;;;;;;9.34;100.00;96347.03;6275839;28;20231;-43
2023/10/19 09:14:00;;;;;;;22.67;20.20;;;;;;;9.30;100.00;96333.47;6274636;28;20234;-41
2023/10/19 09:17:05;;;;;;;22.53;19.87;;;;;;;9.47;100.00;96339.34;6280693;28;20293;-42
2023/10/19 09:20:11;;;;;;;26.53;21.77;;;;;;;9.75;100.00;96337.16;6280161;28;20249;-41
2023/10/19 09:23:13;;;;;;;24.77;21.97;;;;;;;9.61;100.00;96323.63;6261086;28;20228;-41
2023/10/19 09:26:16;;;;;;;24.43;21.83;;;;;;;9.76;100.00;96344.88;6281353;28;20256;-42
2023/10/19 09:29:19;;;;;;;20.67;18.30;;;;;;;9.83;100.00;96340.06;6279380;28;20245;-40
2023/10/19 09:32:21;;;;;;;26.50;21.57;;;;;;;9.83;100.00;96329.44;6263224;28;20277;-41
2023/10/19 09:35:27;;;;;;;22.13;19.67;;;;;;;9.92;100.00;96336.88;6279419;28;20240;-43
2023/10/19 09:38:30;;;;;;;24.03;21.07;;;;;;;9.96;100.00;96336.06;6280868;28;20224;-44
2023/10/19 09:41:33;;;;;;;26.10;22.10;;;;;;;9.95;100.00;96331.81;6278968;28;20328;-41
2023/10/19 09:44:40;;;;;;;25.70;19.37;;;;;;;10.04;100.00;96324.84;6285569;28;20289;-41
2023/10/19 09:47:49;;;;;;;21.67;18.27;;;;;;;10.18;100.00;96316.28;6277571;28;20284;-43
2023/10/19 09:50:58;;;;;;;21.90;19.47;;;;;;;10.30;100.00;96312.28;6278246;28;20232;-42
2023/10/19 09:54:17;;;;;;;21.97;18.33;;;;;;;10.37;100.00;96311.97;6280405;28;20590;-41
2023/10/19 09:57:27;;;;;;;21.27;18.90;;;;;;;10.45;100.00;96308.75;6277478;28;20234;-42
2023/10/19 10:00:34;;;;;;;21.10;18.33;;;;;;;10.49;100.00;96315.13;6278106;28;20255;-40
2023/10/19 10:03:43;;;;;;;23.03;19.00;;;;;;;10.56;100.00;96310.28;6281925;28;20242;-41
2023/10/19 10:06:55;;;;;;;20.67;17.57;;;;;;;10.61;100.00;96313.97;6279385;28;20244;-42
2023/10/19 10:09:57;;;;;;;20.93;18.50;;;;;;;10.72;99.84;96313.63;6280788;28;20582;-42
2023/10/19 10:13:31;;;;;;;19.70;17.30;;;;;;;10.85;100.00;96302.38;6279183;28;20244;-40
2023/10/19 10:16:34;;;;;;;16.33;14.63;;;;;;;11.01;99.70;96299.59;6279514;28;20622;-43
2023/10/19 10:19:36;;;;;;;21.13;17.90;;;;;;;11.08;97.94;96289.41;6279773;28;20230;-41
2023/10/19 10:22:38;;;;;;;18.50;16.60;;;;;;;11.16;98.93;96288.81;6277805;28;20246;-41
2023/10/19 10:25:41;;;;;;;22.13;18.67;;;;;;;11.25;96.99;96294.34;6278381;28;20249;-42
2023/10/19 10:28:50;;;;;;;22.10;19.27;;;;;;;11.18;97.19;96291.19;6245555;28;20240;-41
2023/10/19 10:31:55;;;;;;;23.30;18.50;;;;;;;11.19;97.57;96290.13;6278496;28;20233;-41
2023/10/19 10:34:57;;;;;;;24.20;19.50;;;;;;;11.14;98.10;96280.31;6277591;28;20278;-41
2023/10/19 10:38:00;;;;;;;22.67;19.57;;;;;;;11.22;98.24;96271.69;6276371;28;20241;-40
2023/10/19 10:41:03;;;;;;;21.40;17.87;;;;;;;11.26;98.00;96264.72;6279180;28;20311;-41
2023/10/19 10:44:05;;;;;;;18.23;16.30;;;;;;;11.34;98.10;96264.13;6278943;28;20275;-40
2023/10/19 10:47:10;;;;;;;20.73;18.43;;;;;;;11.48;96.89;96264.28;6278195;28;20282;-40
2023/10/19 10:50:20;;;;;;;19.47;17.57;;;;;;;11.50;97.18;96245.31;6277986;28;20313;-40
2023/10/19 10:53:26;;;;;;;20.60;17.67;;;;;;;11.63;96.77;96240.09;6278607;28;20231;-41
2023/10/19 10:56:28;;;;;;;21.60;18.10;;;;;;;11.68;96.25;96228.59;6277512;28;20321;-42
2023/10/19 10:59:31;;;;;;;20.17;17.97;;;;;;;11.81;96.21;96222.53;6275508;28;20226;-43
2023/10/19 11:02:40;;;;;;;22.03;17.73;;;;;;;11.89;94.88;96221.16;6277946;28;20222;-43
2023/10/19 11:05:45;;;;;;;18.97;16.97;;;;;;;11.99;93.91;96217.56;6258533;28;20326;-43
2023/10/19 11:08:48;;;;;;;17.07;15.07;;;;;;;12.10;94.42;96216.34;6278187;28;20215;-42
2023/10/19 11:11:52;;;;;;;16.93;15.13;;;;;;;12.24;93.96;96211.09;6278372;28;20721;-42
2023/10/19 11:15:09;;;;;;;18.03;16.13;;;;;;;12.31;91.93;96217.66;6279487;28;20340;-41
2023/10/19 11:18:28;;;;;;;21.33;16.80;;;;;;;12.32;90.95;96221.16;6277713;28;20620;-41
2023/10/19 11:21:30;;;;;;;16.93;15.13;;;;;;;12.31;91.87;96227.56;6277023;28;20230;-44
2023/10/19 11:24:37;;;;;;;18.43;16.47;;;;;;;12.39;92.05;96227.69;6278020;28;20311;-42
2023/10/19 11:27:39;;;;;;;18.90;16.30;;;;;;;12.40;91.62;96223.16;6273226;28;20229;-43
2023/10/19 11:30:41;;;;;;;17.77;15.90;;;;;;;12.42;91.51;96218.34;6260319;28;20225;-43
2023/10/19 11:33:48;;;;;;;15.03;13.50;;;;;;;12.48;91.40;96208.38;6275681;28;20323;-42
2023/10/19 11:36:59;;;;;;;15.20;13.60;;;;;;;12.58;91.33;96206.34;6278290;28;20238;-43
2023/10/19 11:40:04;;;;;;;17.00;15.17;;;;;;;12.65;90.85;96193.38;6275598;28;20693;-41
2023/10/19 11:43:06;;;;;;;16.77;13.60;;;;;;;12.73;91.04;96193.81;6278099;28;20261;-43
2023/10/19 11:46:09;;;;;;;15.37;13.60;;;;;;;12.78;90.73;96194.53;6279552;28;20241;-43
2023/10/19 11:49:11;;;;;;;17.33;15.43;;;;;;;12.76;90.46;96187.88;6276913;28;20387;-43
2023/10/19 11:52:14;;;;;;;16.40;14.60;;;;;;;12.74;90.72;96192.72;6275064;28;20290;-41
2023/10/19 11:55:17;;;;;;;17.73;15.87;;;;;;;12.63;90.52;96187.56;6278006;28;20364;-41
2023/10/19 11:58:19;;;;;;;16.63;14.93;;;;;;;12.65;92.43;96188.03;6273153;28;20264;-42
2023/10/19 12:01:21;;;;;;;20.20;15.70;;;;;;;12.66;92.19;96178.19;6277397;28;20233;-42
2023/10/19 12:04:24;;;;;;;17.50;14.53;;;;;;;12.70;92.17;96173.81;6274251;28;20725;-41
2023/10/19 12:07:26;;;;;;;14.33;12.83;;;;;;;12.76;92.02;96172.66;6277447;28;20230;-41
2023/10/19 12:10:35;;;;;;;19.73;17.07;;;;;;;12.77;91.43;96166.22;6276740;28;20639;-44
2023/10/19 12:13:37;;;;;;;16.33;14.63;;;;;;;12.79;91.90;96152.56;6275981;28;20235;-41
2023/10/19 12:16:40;;;;;;;17.93;16.07;;;;;;;12.78;91.93;96150.97;6276042;28;20237;-42
2023/10/19 12:19:42;;;;;;;16.93;14.87;;;;;;;12.80;91.79;96149.59;6273981;28;20249;-41
2023/10/19 12:22:46;;;;;;;13.97;12.57;;;;;;;12.83;91.80;96143.66;6277327;28;20241;-42
2023/10/19 12:25:50;;;;;;;16.87;13.77;;;;;;;12.92;91.91;96141.13;6276444;28;20236;-42
2023/10/19 12:28:59;;;;;;;14.33;12.93;;;;;;;12.94;91.81;96136.25;6257100;28;20308;-42
2023/10/19 12:32:01;;;;;;;20.80;17.17;;;;;;;12.97;91.03;96130.34;6276163;28;20619;-43
2023/10/19 12:35:11;;;;;;;16.73;15.07;;;;;;;13.01;91.18;96125.22;6277232;28;20248;-41
2023/10/19 12:38:17;;;;;;;15.13;13.73;;;;;;;13.07;91.54;96127.47;6274501;28;20234;-42
2023/10/19 12:41:20;;;;;;;15.47;13.97;;;;;;;13.08;91.46;96102.31;6275325;28;20234;-41
2023/10/19 12:44:23;;;;;;;14.07;12.60;;;;;;;13.16;91.46;96112.34;6276314;28;20215;-42
2023/10/19 12:47:25;;;;;;;12.70;11.40;;;;;;;13.27;91.49;96121.00;6277239;28;20245;-42
2023/10/19 12:50:27;;;;;;;13.33;11.93;;;;;;;13.35;92.09;96122.19;6279039;28;20713;-42
2023/10/19 12:53:30;;;;;;;12.00;10.83;;;;;;;13.41;92.29;96121.00;6279580;28;20318;-42
2023/10/19 12:56:35;;;;;;;14.37;12.57;;;;;;;13.54;92.39;96122.06;6280938;28;20312;-41
2023/10/19 12:59:37;;;;;;;12.90;11.33;;;;;;;13.65;92.10;96116.22;6278817;28;20225;-42
2023/10/19 13:02:39;;;;;;;14.17;12.67;;;;;;;13.75;90.65;96117.09;6281022;28;20225;-43
2023/10/19 13:05:44;;;;;;;14.00;12.40;;;;;;;13.85;90.09;96101.59;6279973;28;20230;-44
2023/10/19 13:08:47;;;;;;;12.43;11.13;;;;;;;13.93;90.21;96092.84;6263244;28;20230;-45
2023/10/19 13:11:51;;;;;;;14.00;11.60;;;;;;;13.94;89.88;96091.78;6281036;28;20603;-42
2023/10/19 13:14:56;;;;;;;12.67;11.27;;;;;;;13.96;90.34;96094.13;6280405;28;20230;-43
2023/10/19 13:18:01;;;;;;;11.43;10.33;;;;;;;13.94;90.60;96091.78;6280624;28;20717;-42
2023/10/19 13:21:09;;;;;;;15.17;10.73;;;;;;;13.86;91.56;96097.03;6271203;28;20446;-42
2023/10/19 13:24:13;;;;;;;10.73;9.73;;;;;;;13.77;92.34;96091.59;6236692;28;20234;-41
2023/10/19 13:27:15;;;;;;;12.07;10.73;;;;;;;13.67;93.90;96089.94;6255718;28;20264;-43
2023/10/19 13:30:18;;;;;;;14.63;13.17;;;;;;;13.63;92.34;96088.16;6258215;28;20207;-41
2023/10/19 13:33:22;;;;;;;17.53;14.47;;;;;;;13.64;90.73;96087.88;6255908;28;20227;-45
2023/10/19 13:36:24;;;;;;;12.87;11.53;;;;;;;13.65;91.35;96067.25;6256294;28;20223;-44
2023/10/19 13:39:28;;;;;;;11.77;10.67;;;;;;;13.65;91.56;96068.06;6256424;28;20408;-42
2023/10/19 13:42:30;;;;;;;14.07;12.10;;;;;;;13.63;92.74;96069.44;6255664;28;20238;-42
2023/10/19 13:45:38;;;;;;;14.73;11.33;;;;;;;13.60;92.80;96060.13;6237864;28;20908;-44
2023/10/19 13:48:40;;;;;;;16.83;11.47;;;;;;;13.64;92.76;96074.50;6255741;28;20247;-42
2023/10/19 13:51:43;;;;;;;13.50;12.13;;;;;;;13.70;92.14;96069.03;6256922;28;20238;-42
2023/10/19 13:54:46;;;;;;;12.67;11.33;;;;;;;13.72;92.05;96056.94;6255984;28;20258;-41
2023/10/19 13:57:48;;;;;;;13.70;11.13;;;;;;;13.71;92.50;96041.97;6254734;28;20281;-42
2023/10/19 14:00:51;;;;;;;13.40;12.00;;;;;;;13.75;91.22;96034.94;6254402;28;20744;-42
2023/10/19 14:03:56;;;;;;;13.33;10.83;;;;;;;13.73;92.34;96025.59;6254635;28;20241;-42
2023/10/19 14:06:59;;;;;;;11.87;10.50;;;;;;;13.63;93.23;96030.09;6255184;28;20239;-42
2023/10/19 14:10:01;;;;;;;12.10;10.80;;;;;;;13.58;93.69;96040.91;6255295;28;20235;-41
2023/10/19 14:13:05;;;;;;;16.90;12.33;;;;;;;13.59;94.08;96041.69;6238102;28;20316;-41
2023/10/19 14:16:08;;;;;;;16.70;14.40;;;;;;;13.59;94.18;96036.34;6256025;28;20369;-42
2023/10/19 14:19:10;;;;;;;15.07;13.47;;;;;;;13.66;92.38;96037.50;6256906;28;20241;-42
2023/10/19 14:22:13;;;;;;;14.50;12.80;;;;;;;13.64;92.64;96045.06;6255933;28;20231;-41